Time;durP1;ratioP1;P1;durP2;ratioP2;P2;SDS_P1;SDS_P2;PMS_P1;PMS_P2;Temp;Humidity;BMP_temperature;BMP_pressure;BME280_temperature;BME280_humidity;BME280_pressure;Samples;Min_cycle;Max_cycle;Signal;HPM_P1;HPM_P2
2022/10/11 00:01:21;;;;;;;12.05;2.42;;;;;;;;;;5107554;28;20406;-83
2022/10/11 00:03:49;;;;;;;13.90;2.67;;;;;;;;;;5100637;28;20743;-82
2022/10/11 00:06:23;;;;;;;10.65;2.67;;;;;;;;;;5108486;28;20422;-83
2022/10/11 00:08:50;;;;;;;11.02;2.33;;;;;;;;;;5081310;28;20412;-82
2022/10/11 00:11:18;;;;;;;15.18;2.60;;;;;;;;;;5100796;28;20901;-82
2022/10/11 00:13:51;;;;;;;13.90;2.72;;;;;;;;;;5078139;28;20418;-83
2022/10/11 00:16:19;;;;;;;14.45;2.60;;;;;;;;;;5105198;28;20408;-83
2022/10/11 00:18:46;;;;;;;12.32;2.47;;;;;;;;;;5088632;28;20435;-82
2022/10/11 00:21:15;;;;;;;13.10;2.55;;;;;;;;;;5090584;28;20420;-82
2022/10/11 00:23:49;;;;;;;10.38;2.95;;;;;;;;;;5094577;28;20900;-82
2022/10/11 00:26:17;;;;;;;14.30;2.70;;;;;;;;;;5104370;28;20408;-82
2022/10/11 00:28:45;;;;;;;12.90;2.50;;;;;;;;;;5102337;28;20423;-82
2022/10/11 00:31:18;;;;;;;15.75;2.40;;;;;;;;;;5095452;28;20420;-82
2022/10/11 00:33:52;;;;;;;15.68;2.92;;;;;;;;;;5092118;28;20416;-83
2022/10/11 00:36:20;;;;;;;12.23;2.25;;;;;;;;;;5088117;28;20789;-83
2022/10/11 00:38:54;;;;;;;15.30;2.50;;;;;;;;;;5090754;28;20427;-82
2022/10/11 00:41:27;;;;;;;15.85;2.83;;;;;;;;;;5111499;28;20414;-82
2022/10/11 00:44:10;;;;;;;11.70;2.53;;;;;;;;;;5101863;27;20812;-82
2022/10/11 00:46:38;;;;;;;14.00;2.45;;;;;;;;;;5095664;28;20409;-82
2022/10/11 00:49:17;;;;;;;13.90;2.55;;;;;;;;;;5113965;27;20422;-82
2022/10/11 00:51:52;;;;;;;20.42;3.03;;;;;;;;;;5105863;28;20404;-82
2022/10/11 00:54:28;;;;;;;12.43;2.50;;;;;;;;;;5101755;28;20420;-82
2022/10/11 00:57:03;;;;;;;15.93;2.47;;;;;;;;;;5103189;28;20868;-82
2022/10/11 00:59:38;;;;;;;14.30;2.85;;;;;;;;;;5106173;28;20424;-82
2022/10/11 01:02:06;;;;;;;13.43;2.30;;;;;;;;;;5117116;27;20404;-82
2022/10/11 01:04:39;;;;;;;10.10;2.38;;;;;;;;;;5085238;28;20410;-82
2022/10/11 01:07:07;;;;;;;12.67;2.53;;;;;;;;;;5090852;28;20491;-82
2022/10/11 01:09:42;;;;;;;14.00;2.67;;;;;;;;;;5094342;27;20937;-82
2022/10/11 01:12:14;;;;;;;15.93;2.33;;;;;;;;;;5103356;27;20410;-83
2022/10/11 01:14:54;;;;;;;13.63;2.50;;;;;;;;;;5089956;28;20426;-82
2022/10/11 01:17:26;;;;;;;15.10;2.55;;;;;;;;;;5108594;28;20413;-83
2022/10/11 01:20:02;;;;;;;13.02;2.47;;;;;;;;;;5088882;27;20410;-83
2022/10/11 01:22:41;;;;;;;14.03;2.73;;;;;;;;;;5108764;27;20413;-82
2022/10/11 01:25:17;;;;;;;10.77;2.30;;;;;;;;;;5088163;28;20415;-83
2022/10/11 01:28:00;;;;;;;12.25;2.45;;;;;;;;;;5088278;28;20417;-83
2022/10/11 01:30:34;;;;;;;13.48;2.40;;;;;;;;;;5088699;28;20423;-82
2022/10/11 01:33:12;;;;;;;11.73;2.35;;;;;;;;;;5085521;28;20422;-84
2022/10/11 01:35:41;;;;;;;14.30;2.53;;;;;;;;;;5109695;28;20404;-82
2022/10/11 01:38:17;;;;;;;10.47;2.50;;;;;;;;;;5097745;28;20929;-81
2022/10/11 01:40:46;;;;;;;12.63;2.20;;;;;;;;;;5097438;28;20424;-82
2022/10/11 01:43:20;;;;;;;14.00;2.70;;;;;;;;;;5099816;28;20418;-82
2022/10/11 01:45:50;;;;;;;11.90;2.30;;;;;;;;;;5110297;28;21086;-82
2022/10/11 01:48:23;;;;;;;13.82;2.42;;;;;;;;;;5089061;28;20412;-82
2022/10/11 01:50:57;;;;;;;16.65;2.60;;;;;;;;;;5105713;28;20420;-83
2022/10/11 01:53:57;;;;;;;15.40;2.58;;;;;;;;;;5112319;27;20412;-83
2022/10/11 01:56:34;;;;;;;14.07;2.58;;;;;;;;;;5039912;27;20438;-83
2022/10/11 01:59:09;;;;;;;12.50;2.30;;;;;;;;;;5087044;28;20428;-82
2022/10/11 02:01:44;;;;;;;12.32;2.45;;;;;;;;;;5084773;28;20919;-83
2022/10/11 02:04:15;;;;;;;15.43;2.42;;;;;;;;;;5097643;28;20416;-83
2022/10/11 02:06:48;;;;;;;10.52;2.33;;;;;;;;;;5081816;28;20406;-82
2022/10/11 02:09:18;;;;;;;16.48;2.60;;;;;;;;;;5112067;28;20957;-83
2022/10/11 02:11:45;;;;;;;14.07;2.63;;;;;;;;;;5095465;28;20425;-83
2022/10/11 02:14:20;;;;;;;12.77;2.30;;;;;;;;;;5113432;28;20412;-83
2022/10/11 02:16:57;;;;;;;16.45;2.58;;;;;;;;;;5106637;28;20423;-83
2022/10/11 02:19:27;;;;;;;12.40;2.25;;;;;;;;;;5113380;28;20419;-82
2022/10/11 02:21:58;;;;;;;13.27;2.58;;;;;;;;;;5092400;28;20416;-83
2022/10/11 02:24:27;;;;;;;13.77;2.33;;;;;;;;;;5097033;27;20408;-83
2022/10/11 02:26:56;;;;;;;18.88;2.58;;;;;;;;;;5097878;28;20428;-83
2022/10/11 02:29:25;;;;;;;11.57;2.63;;;;;;;;;;5113415;28;20426;-83
2022/10/11 02:31:56;;;;;;;13.27;2.67;;;;;;;;;;5091709;28;20421;-82
2022/10/11 02:34:25;;;;;;;13.35;2.60;;;;;;;;;;5097428;28;20763;-82
2022/10/11 02:36:59;;;;;;;13.32;2.40;;;;;;;;;;5110002;27;20770;-83
2022/10/11 02:39:34;;;;;;;15.32;2.25;;;;;;;;;;5102022;28;20428;-83
2022/10/11 02:42:09;;;;;;;13.82;2.35;;;;;;;;;;5110688;27;20416;-83
2022/10/11 02:44:44;;;;;;;12.63;2.58;;;;;;;;;;5100885;27;20411;-83
2022/10/11 02:47:18;;;;;;;12.37;2.40;;;;;;;;;;5114924;27;20425;-83
2022/10/11 02:49:51;;;;;;;13.52;2.28;;;;;;;;;;5099442;28;20870;-83
2022/10/11 02:52:18;;;;;;;15.25;2.58;;;;;;;;;;5112520;27;20415;-83
2022/10/11 02:54:51;;;;;;;9.38;2.03;;;;;;;;;;5118611;27;20419;-83
2022/10/11 02:57:19;;;;;;;13.77;2.53;;;;;;;;;;5082689;27;20892;-83
2022/10/11 02:59:47;;;;;;;14.70;2.00;;;;;;;;;;5110325;27;20404;-83
2022/10/11 03:02:21;;;;;;;11.35;2.28;;;;;;;;;;5093932;28;20924;-83
2022/10/11 03:04:54;;;;;;;12.53;2.30;;;;;;;;;;5101318;27;20407;-84
2022/10/11 03:07:26;;;;;;;14.03;2.63;;;;;;;;;;5080679;28;20474;-83
2022/10/11 03:09:54;;;;;;;12.03;2.13;;;;;;;;;;5107327;28;20982;-84
2022/10/11 03:12:22;;;;;;;11.93;2.23;;;;;;;;;;5102198;28;20424;-83
2022/10/11 03:14:50;;;;;;;16.57;2.63;;;;;;;;;;5093357;28;20418;-83
2022/10/11 03:17:18;;;;;;;11.20;2.20;;;;;;;;;;5082710;27;20413;-84
2022/10/11 03:19:52;;;;;;;13.25;2.40;;;;;;;;;;5099924;28;20412;-83
2022/10/11 03:22:25;;;;;;;12.98;2.40;;;;;;;;;;5088247;28;20746;-83
2022/10/11 03:24:52;;;;;;;13.40;2.33;;;;;;;;;;5078736;28;20416;-83
2022/10/11 03:27:20;;;;;;;13.55;2.42;;;;;;;;;;5102308;28;20781;-84
2022/10/11 03:29:53;;;;;;;17.40;2.33;;;;;;;;;;5084415;28;20418;-84
2022/10/11 03:32:21;;;;;;;13.32;2.60;;;;;;;;;;5095511;28;20420;-84
2022/10/11 03:34:48;;;;;;;11.63;2.22;;;;;;;;;;5078476;28;20438;-83
2022/10/11 03:37:17;;;;;;;15.32;2.20;;;;;;;;;;5080710;28;20827;-84
2022/10/11 03:39:50;;;;;;;12.70;2.10;;;;;;;;;;5080396;28;20425;-82
2022/10/11 03:42:23;;;;;;;15.32;2.70;;;;;;;;;;5092637;28;20410;-83
2022/10/11 03:44:51;;;;;;;14.07;2.55;;;;;;;;;;5093258;28;20412;-83
2022/10/11 03:47:24;;;;;;;14.05;2.17;;;;;;;;;;5091655;27;20424;-83
2022/10/11 03:49:51;;;;;;;15.05;2.53;;;;;;;;;;5120910;27;20404;-83
2022/10/11 03:52:21;;;;;;;15.50;2.17;;;;;;;;;;5087530;28;20760;-83
2022/10/11 03:54:53;;;;;;;13.55;2.40;;;;;;;;;;5118389;27;20407;-84
2022/10/11 03:57:26;;;;;;;13.27;2.05;;;;;;;;;;5096748;28;20412;-83
2022/10/11 03:59:54;;;;;;;14.90;2.50;;;;;;;;;;5083069;28;20911;-83
2022/10/11 04:02:27;;;;;;;15.90;2.40;;;;;;;;;;5101890;28;20412;-84
2022/10/11 04:04:55;;;;;;;15.25;2.60;;;;;;;;;;5084111;28;20916;-83
2022/10/11 04:07:24;;;;;;;12.23;2.47;;;;;;;;;;5079420;28;20445;-84
2022/10/11 04:09:52;;;;;;;10.70;2.28;;;;;;;;;;5111876;28;20446;-83
2022/10/11 04:12:19;;;;;;;15.30;2.28;;;;;;;;;;5081518;28;20433;-83
2022/10/11 04:14:52;;;;;;;11.40;2.70;;;;;;;;;;5114305;28;20423;-83
2022/10/11 04:17:20;;;;;;;17.45;2.63;;;;;;;;;;5086152;28;20921;-85
2022/10/11 04:19:53;;;;;;;9.52;2.15;;;;;;;;;;5091543;28;20915;-83
2022/10/11 04:22:21;;;;;;;17.85;2.40;;;;;;;;;;5119261;28;20392;-84
2022/10/11 04:24:55;;;;;;;15.35;2.65;;;;;;;;;;5101824;28;20420;-85
2022/10/11 04:27:23;;;;;;;10.40;2.20;;;;;;;;;;5092935;28;20412;-84
2022/10/11 04:29:56;;;;;;;13.02;2.55;;;;;;;;;;5078692;28;20425;-84
2022/10/11 04:32:24;;;;;;;12.55;2.42;;;;;;;;;;5088127;28;20422;-83
2022/10/11 04:34:57;;;;;;;14.57;2.50;;;;;;;;;;5092276;28;20424;-83
2022/10/11 04:37:29;;;;;;;10.75;2.40;;;;;;;;;;5092049;28;20416;-84
2022/10/11 04:39:58;;;;;;;11.82;2.10;;;;;;;;;;5092195;28;20424;-84
2022/10/11 04:42:31;;;;;;;11.80;2.33;;;;;;;;;;5094224;28;20413;-83
2022/10/11 04:45:04;;;;;;;12.32;2.20;;;;;;;;;;5075289;28;21299;-85
2022/10/11 04:47:33;;;;;;;10.25;2.53;;;;;;;;;;5084940;28;20416;-83
2022/10/11 04:50:09;;;;;;;9.38;2.28;;;;;;;;;;5088723;28;20804;-84
2022/10/11 04:52:37;;;;;;;17.10;2.80;;;;;;;;;;5080143;28;20418;-84
2022/10/11 04:55:11;;;;;;;8.90;2.10;;;;;;;;;;5108687;28;20416;-85
2022/10/11 04:57:44;;;;;;;14.40;2.50;;;;;;;;;;5085323;28;20409;-85
2022/10/11 05:00:12;;;;;;;14.07;2.38;;;;;;;;;;5085989;28;20419;-84
2022/10/11 05:02:40;;;;;;;12.83;1.97;;;;;;;;;;5090302;28;20901;-83
2022/10/11 05:05:16;;;;;;;9.50;2.00;;;;;;;;;;5088502;28;20504;-84
2022/10/11 05:07:44;;;;;;;13.23;2.05;;;;;;;;;;5080374;28;20473;-83
2022/10/11 05:10:18;;;;;;;12.68;2.10;;;;;;;;;;5107130;28;20418;-83
2022/10/11 05:12:51;;;;;;;14.20;2.10;;;;;;;;;;5092619;28;20418;-83
2022/10/11 05:15:23;;;;;;;14.00;2.25;;;;;;;;;;5081384;28;20913;-83
2022/10/11 05:17:51;;;;;;;14.30;2.63;;;;;;;;;;5084070;28;20429;-83
2022/10/11 05:20:19;;;;;;;12.67;2.20;;;;;;;;;;5081761;28;20969;-84
2022/10/11 05:22:47;;;;;;;12.68;2.08;;;;;;;;;;5103752;28;20402;-83
2022/10/11 05:25:15;;;;;;;10.97;2.20;;;;;;;;;;5105849;28;20444;-84
2022/10/11 05:27:44;;;;;;;9.93;2.13;;;;;;;;;;5090995;28;20416;-83
2022/10/11 05:30:17;;;;;;;15.75;2.58;;;;;;;;;;5088969;28;20426;-83
2022/10/11 05:32:49;;;;;;;13.82;2.67;;;;;;;;;;5106698;27;20426;-83
2022/10/11 05:35:17;;;;;;;12.55;2.47;;;;;;;;;;5081951;28;20786;-83
2022/10/11 05:37:50;;;;;;;9.13;2.15;;;;;;;;;;5092064;28;20922;-83
2022/10/11 05:40:23;;;;;;;13.48;2.40;;;;;;;;;;5093552;28;20422;-83
2022/10/11 05:42:52;;;;;;;17.88;2.65;;;;;;;;;;5099821;28;20410;-83
2022/10/11 05:45:20;;;;;;;14.43;2.47;;;;;;;;;;5110421;28;20431;-84
2022/10/11 05:47:47;;;;;;;10.77;2.53;;;;;;;;;;5094577;28;20498;-83
2022/10/11 05:50:20;;;;;;;17.65;2.53;;;;;;;;;;5091268;28;20429;-82
2022/10/11 05:52:53;;;;;;;10.63;2.30;;;;;;;;;;5089301;28;20420;-83
2022/10/11 05:55:26;;;;;;;16.15;2.42;;;;;;;;;;5084690;28;20425;-82
2022/10/11 05:58:00;;;;;;;12.57;2.42;;;;;;;;;;5109502;28;20412;-82
2022/10/11 06:00:28;;;;;;;15.43;2.20;;;;;;;;;;5090390;28;20421;-83
2022/10/11 06:02:55;;;;;;;13.43;2.20;;;;;;;;;;5078566;28;20437;-83
2022/10/11 06:05:23;;;;;;;11.32;2.13;;;;;;;;;;5094228;28;20438;-83
2022/10/11 06:07:57;;;;;;;16.10;2.67;;;;;;;;;;5080448;28;20762;-83
2022/10/11 06:10:25;;;;;;;13.73;2.28;;;;;;;;;;5089712;28;20432;-83
2022/10/11 06:12:53;;;;;;;11.32;2.50;;;;;;;;;;5101181;27;20408;-83
2022/10/11 06:15:27;;;;;;;13.02;2.65;;;;;;;;;;5112651;28;20774;-83
2022/10/11 06:17:56;;;;;;;10.68;2.25;;;;;;;;;;5082288;28;21092;-83
2022/10/11 06:20:24;;;;;;;17.43;2.20;;;;;;;;;;5080932;28;20485;-82
2022/10/11 06:22:52;;;;;;;14.97;2.40;;;;;;;;;;5104589;28;20410;-83
2022/10/11 06:25:25;;;;;;;12.20;2.00;;;;;;;;;;5094503;28;20412;-86
2022/10/11 06:27:58;;;;;;;15.15;2.50;;;;;;;;;;5102862;28;20424;-83
2022/10/11 06:30:32;;;;;;;13.02;2.55;;;;;;;;;;5075029;28;20424;-85
2022/10/11 06:32:59;;;;;;;11.20;2.40;;;;;;;;;;5091589;28;20420;-84
2022/10/11 06:35:27;;;;;;;9.60;2.13;;;;;;;;;;5075464;28;20421;-82
2022/10/11 06:38:00;;;;;;;13.35;2.42;;;;;;;;;;5081638;28;20420;-85
2022/10/11 06:40:28;;;;;;;14.00;2.80;;;;;;;;;;5070776;28;20451;-84
2022/10/11 06:42:55;;;;;;;14.32;2.80;;;;;;;;;;5069143;28;20428;-82
2022/10/11 06:45:28;;;;;;;11.73;2.35;;;;;;;;;;5088367;28;21710;-83
2022/10/11 06:48:04;;;;;;;18.15;2.70;;;;;;;;;;5073284;28;21308;-83
2022/10/11 06:50:37;;;;;;;11.25;2.45;;;;;;;;;;5073131;28;20437;-83
2022/10/11 06:53:06;;;;;;;15.40;2.70;;;;;;;;;;5072039;28;20432;-85
2022/10/11 06:55:34;;;;;;;11.83;2.53;;;;;;;;;;5094578;28;20900;-83
2022/10/11 06:58:01;;;;;;;14.30;2.20;;;;;;;;;;5073861;28;21230;-84
2022/10/11 07:00:34;;;;;;;11.00;2.40;;;;;;;;;;5095951;28;20426;-82
2022/10/11 07:03:08;;;;;;;11.80;2.33;;;;;;;;;;5077410;28;20470;-84
2022/10/11 07:05:41;;;;;;;12.88;2.42;;;;;;;;;;5090190;28;20437;-82
2022/10/11 07:08:09;;;;;;;11.55;2.20;;;;;;;;;;5074024;28;21242;-83
2022/10/11 07:10:42;;;;;;;13.88;2.25;;;;;;;;;;5079073;28;20421;-86
2022/10/11 07:13:14;;;;;;;14.82;2.53;;;;;;;;;;5068058;28;20424;-83
2022/10/11 07:15:42;;;;;;;12.93;2.55;;;;;;;;;;5079869;28;20420;-83
2022/10/11 07:18:16;;;;;;;12.07;2.40;;;;;;;;;;5072861;28;20443;-84
2022/10/11 07:20:49;;;;;;;16.88;2.60;;;;;;;;;;5073253;28;20439;-83
2022/10/11 07:23:22;;;;;;;10.43;2.40;;;;;;;;;;5091349;28;20462;-86
2022/10/11 07:25:53;;;;;;;15.30;2.58;;;;;;;;;;5094913;28;21142;-85
2022/10/11 07:28:27;;;;;;;13.33;2.20;;;;;;;;;;5092336;28;20412;-83
2022/10/11 07:31:04;;;;;;;14.10;2.33;;;;;;;;;;5076837;28;20432;-83
2022/10/11 07:33:38;;;;;;;16.17;2.83;;;;;;;;;;5070904;28;20420;-83
2022/10/11 07:36:07;;;;;;;12.67;2.40;;;;;;;;;;5071463;28;20427;-83
2022/10/11 07:38:40;;;;;;;10.27;1.90;;;;;;;;;;5071142;28;20506;-83
2022/10/11 07:41:08;;;;;;;11.45;2.53;;;;;;;;;;5067797;28;20420;-83
2022/10/11 07:43:36;;;;;;;12.27;2.20;;;;;;;;;;5090190;28;20416;-85
2022/10/11 07:46:05;;;;;;;12.98;2.15;;;;;;;;;;5085069;28;20419;-83
2022/10/11 07:48:34;;;;;;;11.55;2.17;;;;;;;;;;5069262;28;20432;-83
2022/10/11 07:51:04;;;;;;;10.57;1.90;;;;;;;;;;5070009;28;21096;-83
2022/10/11 07:53:40;;;;;;;12.23;1.98;;;;;;;;;;5072086;28;20450;-83
2022/10/11 07:56:14;;;;;;;10.88;2.13;;;;;;;;;;5068999;28;20432;-82
2022/10/11 07:58:42;;;;;;;16.95;2.58;;;;;;;;;;5073589;28;20435;-84
2022/10/11 08:01:10;;;;;;;11.30;1.80;;;;;;;;;;5091447;28;20426;-84
2022/10/11 08:03:43;;;;;;;11.10;2.10;;;;;;;;;;5071536;28;20486;-83
2022/10/11 08:06:20;;;;;;;10.77;2.20;;;;;;;;;;5073589;28;20424;-83
2022/10/11 08:08:48;;;;;;;14.07;2.25;;;;;;;;;;5068201;28;20424;-83
2022/10/11 08:11:21;;;;;;;11.60;2.00;;;;;;;;;;5091596;28;21782;-85
2022/10/11 08:13:54;;;;;;;11.60;1.90;;;;;;;;;;5068206;28;20432;-84
2022/10/11 08:16:27;;;;;;;11.13;2.33;;;;;;;;;;5067729;28;20423;-83
2022/10/11 08:18:55;;;;;;;11.43;2.50;;;;;;;;;;5067293;28;20428;-85
2022/10/11 08:21:30;;;;;;;15.38;2.05;;;;;;;;;;5087894;28;20416;-85
2022/10/11 08:24:03;;;;;;;12.68;2.20;;;;;;;;;;5088541;28;20431;-85
2022/10/11 08:26:36;;;;;;;12.95;2.33;;;;;;;;;;5076564;28;20417;-83
2022/10/11 08:29:04;;;;;;;9.52;2.00;;;;;;;;;;5071868;28;20421;-83
2022/10/11 08:31:37;;;;;;;13.50;2.25;;;;;;;;;;5068682;28;20423;-85
2022/10/11 08:34:10;;;;;;;11.57;2.10;;;;;;;;;;5072446;28;20405;-84
2022/10/11 08:36:44;;;;;;;11.77;1.98;;;;;;;;;;5088771;28;20412;-85
2022/10/11 08:39:12;;;;;;;12.07;1.88;;;;;;;;;;5089116;28;20415;-85
2022/10/11 08:41:41;;;;;;;14.02;2.08;;;;;;;;;;5073415;28;20424;-83
2022/10/11 08:44:20;;;;;;;10.25;1.88;;;;;;;;;;5072301;28;20428;-83
2022/10/11 08:46:59;;;;;;;10.20;2.00;;;;;;;;;;5074298;28;20425;-84
2022/10/11 08:49:28;;;;;;;11.63;2.53;;;;;;;;;;5073732;28;20468;-83
2022/10/11 08:52:01;;;;;;;9.77;1.98;;;;;;;;;;5089988;28;20416;-86
2022/10/11 08:54:39;;;;;;;13.20;1.88;;;;;;;;;;5077391;28;20404;-84
2022/10/11 08:57:07;;;;;;;14.90;2.30;;;;;;;;;;5074932;28;20435;-84
2022/10/11 08:59:39;;;;;;;9.83;1.73;;;;;;;;;;5091672;28;20416;-85
2022/10/11 09:02:26;;;;;;;15.70;2.07;;;;;;;;;;5074976;28;20430;-83
2022/10/11 09:05:00;;;;;;;12.35;1.75;;;;;;;;;;5070603;28;20417;-84
2022/10/11 09:07:34;;;;;;;14.00;2.20;;;;;;;;;;5071163;28;20436;-83
2022/10/11 09:10:11;;;;;;;11.95;1.90;;;;;;;;;;5073273;28;20428;-84
2022/10/11 09:12:44;;;;;;;15.57;2.10;;;;;;;;;;5092274;28;20424;-84
2022/10/11 09:15:22;;;;;;;12.45;1.92;;;;;;;;;;5072974;28;22061;-84
2022/10/11 09:18:09;;;;;;;7.82;1.65;;;;;;;;;;5091396;28;21040;-84
2022/10/11 09:20:43;;;;;;;10.45;1.95;;;;;;;;;;5079285;28;20919;-84
2022/10/11 09:23:18;;;;;;;16.55;2.03;;;;;;;;;;5089445;28;20447;-84
2022/10/11 09:25:54;;;;;;;15.15;2.08;;;;;;;;;;5068110;28;20428;-86
2022/10/11 09:28:29;;;;;;;10.10;1.90;;;;;;;;;;5098249;28;20880;-83
2022/10/11 09:30:58;;;;;;;10.77;1.98;;;;;;;;;;5072262;28;20830;-85
2022/10/11 09:33:32;;;;;;;10.93;1.60;;;;;;;;;;5091925;28;20428;-85
2022/10/11 09:36:01;;;;;;;13.85;2.30;;;;;;;;;;5097901;28;20435;-91
2022/10/11 09:38:39;;;;;;;10.73;1.93;;;;;;;;;;5079018;28;21032;-87
2022/10/11 09:41:16;;;;;;;12.23;2.00;;;;;;;;;;5074138;28;20428;-85
2022/10/11 09:43:50;;;;;;;12.43;1.80;;;;;;;;;;5074267;28;20506;-82
2022/10/11 09:46:21;;;;;;;11.20;1.98;;;;;;;;;;5076406;28;20420;-84
2022/10/11 09:48:50;;;;;;;13.65;2.20;;;;;;;;;;5077664;28;20417;-84
2022/10/11 09:51:19;;;;;;;11.63;2.05;;;;;;;;;;5076490;28;20412;-86
2022/10/11 09:53:54;;;;;;;9.10;2.20;;;;;;;;;;5077139;28;21058;-82
2022/10/11 09:56:22;;;;;;;9.70;1.58;;;;;;;;;;5078282;28;20420;-84
2022/10/11 09:59:05;;;;;;;8.85;1.52;;;;;;;;;;5074671;28;20416;-81
2022/10/11 10:01:33;;;;;;;11.07;1.73;;;;;;;;;;5078856;28;20423;-85
2022/10/11 10:04:08;;;;;;;13.95;1.88;;;;;;;;;;5078697;28;20420;-85
2022/10/11 10:06:41;;;;;;;9.02;1.55;;;;;;;;;;5095475;28;20416;-84
2022/10/11 10:09:21;;;;;;;9.50;1.60;;;;;;;;;;5092571;28;20427;-85
2022/10/11 10:11:48;;;;;;;10.82;1.60;;;;;;;;;;5098318;28;20419;-83
2022/10/11 10:14:23;;;;;;;10.75;1.63;;;;;;;;;;5076516;28;20420;-85
2022/10/11 10:16:59;;;;;;;13.05;1.70;;;;;;;;;;5078550;28;20416;-84
2022/10/11 10:19:41;;;;;;;12.38;2.15;;;;;;;;;;5078427;28;20424;-85
2022/10/11 10:22:17;;;;;;;7.78;1.70;;;;;;;;;;5071884;28;20427;-84
2022/10/11 10:24:51;;;;;;;10.85;1.67;;;;;;;;;;5076126;28;20420;-84
2022/10/11 10:27:25;;;;;;;9.07;1.70;;;;;;;;;;5074176;28;20984;-84
2022/10/11 10:30:02;;;;;;;10.70;1.50;;;;;;;;;;5092582;28;20400;-86
2022/10/11 10:32:39;;;;;;;12.32;2.28;;;;;;;;;;5072883;28;20436;-85
2022/10/11 10:35:12;;;;;;;10.20;1.60;;;;;;;;;;5073788;28;20778;-83
2022/10/11 10:37:42;;;;;;;13.15;2.03;;;;;;;;;;5081063;28;20446;-86
2022/10/11 10:40:14;;;;;;;10.85;1.85;;;;;;;;;;5078651;28;20432;-88
2022/10/11 10:42:42;;;;;;;12.60;2.15;;;;;;;;;;5078550;28;20432;-86
2022/10/11 10:45:14;;;;;;;9.70;2.15;;;;;;;;;;5076103;28;20428;-83
2022/10/11 10:47:49;;;;;;;11.90;2.03;;;;;;;;;;5078089;28;20417;-83
2022/10/11 10:50:21;;;;;;;12.95;1.80;;;;;;;;;;5073704;28;20431;-83
2022/10/11 10:52:55;;;;;;;7.72;1.65;;;;;;;;;;5077807;28;20433;-81
2022/10/11 10:55:33;;;;;;;13.55;1.88;;;;;;;;;;5078687;28;20423;-83
2022/10/11 10:58:16;;;;;;;11.57;1.67;;;;;;;;;;5074722;28;20765;-87
2022/10/11 11:00:50;;;;;;;13.82;1.95;;;;;;;;;;5077212;28;20428;-84
2022/10/11 11:03:21;;;;;;;13.27;1.83;;;;;;;;;;5074129;28;20427;-84
2022/10/11 11:05:53;;;;;;;8.10;1.88;;;;;;;;;;5073164;28;20429;-86
2022/10/11 11:08:34;;;;;;;11.15;2.05;;;;;;;;;;5077203;28;20522;-86
2022/10/11 11:11:17;;;;;;;10.93;1.77;;;;;;;;;;5076064;28;20416;-85
2022/10/11 11:13:50;;;;;;;8.97;1.53;;;;;;;;;;5076159;28;21111;-86
2022/10/11 11:16:27;;;;;;;13.50;1.70;;;;;;;;;;5097550;28;20420;-86
2022/10/11 11:18:58;;;;;;;7.63;1.73;;;;;;;;;;5071777;28;20428;-85
2022/10/11 11:21:34;;;;;;;10.07;2.00;;;;;;;;;;5076498;28;20420;-86
2022/10/11 11:24:13;;;;;;;7.95;1.90;;;;;;;;;;5092464;28;21168;-86
2022/10/11 11:26:46;;;;;;;12.10;1.80;;;;;;;;;;5074636;28;20499;-85
2022/10/11 11:29:19;;;;;;;10.67;2.00;;;;;;;;;;5094258;28;20464;-87
2022/10/11 11:32:02;;;;;;;13.95;2.00;;;;;;;;;;5097634;28;20412;-86
2022/10/11 11:34:37;;;;;;;12.67;2.07;;;;;;;;;;5077646;28;20429;-80
2022/10/11 11:37:14;;;;;;;10.68;1.70;;;;;;;;;;5076954;28;20447;-84
2022/10/11 11:39:45;;;;;;;10.98;1.92;;;;;;;;;;5075397;28;20439;-85
2022/10/11 11:42:21;;;;;;;9.75;1.95;;;;;;;;;;5075184;28;20420;-84
2022/10/11 11:44:50;;;;;;;13.57;1.80;;;;;;;;;;5077496;28;20413;-84
2022/10/11 11:47:25;;;;;;;10.10;1.60;;;;;;;;;;5079218;28;20420;-85
2022/10/11 11:49:55;;;;;;;13.45;1.88;;;;;;;;;;5076831;28;21143;-87
2022/10/11 11:52:26;;;;;;;11.00;1.77;;;;;;;;;;5071870;28;20424;-84
2022/10/11 11:55:04;;;;;;;9.40;1.88;;;;;;;;;;5093300;28;20420;-86
2022/10/11 11:57:43;;;;;;;11.77;1.95;;;;;;;;;;5069868;28;20801;-86
2022/10/11 12:00:18;;;;;;;12.80;1.90;;;;;;;;;;5093466;28;20427;-87
2022/10/11 12:02:48;;;;;;;10.55;1.80;;;;;;;;;;5096893;28;20784;-83
2022/10/11 12:05:22;;;;;;;10.70;1.83;;;;;;;;;;5096061;28;20916;-89
2022/10/11 12:07:57;;;;;;;12.50;1.77;;;;;;;;;;5090956;28;20408;-85
2022/10/11 12:10:27;;;;;;;11.30;1.60;;;;;;;;;;5093381;28;20404;-83
2022/10/11 12:13:16;;;;;;;14.27;1.88;;;;;;;;;;5077949;28;20424;-86
2022/10/11 12:16:08;;;;;;;9.98;1.70;;;;;;;;;;5076803;28;20432;-82
2022/10/11 12:18:46;;;;;;;11.13;1.85;;;;;;;;;;5075299;28;20763;-85
2022/10/11 12:21:18;;;;;;;8.45;1.45;;;;;;;;;;5075648;28;21004;-85
2022/10/11 12:23:51;;;;;;;15.18;2.10;;;;;;;;;;5076802;28;20428;-81
2022/10/11 12:26:33;;;;;;;17.42;2.10;;;;;;;;;;5077188;28;20416;-86
2022/10/11 12:29:20;;;;;;;15.30;1.73;;;;;;;;;;5082021;28;20438;-84
2022/10/11 12:31:50;;;;;;;15.90;1.90;;;;;;;;;;5099303;28;20419;-81
2022/10/11 12:34:41;;;;;;;7.75;1.50;;;;;;;;;;5081810;28;20419;-86
2022/10/11 12:37:33;;;;;;;11.63;1.70;;;;;;;;;;5068147;28;20420;-86
2022/10/11 12:40:01;;;;;;;9.32;1.60;;;;;;;;;;5078524;28;21271;-84
2022/10/11 12:42:35;;;;;;;11.77;1.60;;;;;;;;;;5099134;28;20423;-84
2022/10/11 12:45:22;;;;;;;13.43;1.55;;;;;;;;;;5081493;28;20424;-83
2022/10/11 12:47:56;;;;;;;11.23;1.60;;;;;;;;;;5075929;28;20424;-85
2022/10/11 12:50:28;;;;;;;16.77;1.73;;;;;;;;;;5077196;28;20428;-87
2022/10/11 12:53:05;;;;;;;13.63;1.52;;;;;;;;;;5075502;28;20431;-83
2022/10/11 12:55:41;;;;;;;12.00;1.58;;;;;;;;;;5094062;28;21171;-82
2022/10/11 12:58:24;;;;;;;11.52;1.88;;;;;;;;;;5094763;28;20431;-85
2022/10/11 13:01:21;;;;;;;9.10;1.40;;;;;;;;;;5081248;28;20438;-84
2022/10/11 13:03:57;;;;;;;7.72;1.40;;;;;;;;;;5059432;28;20420;-85
2022/10/11 13:06:27;;;;;;;10.48;1.30;;;;;;;;;;5076487;28;20445;-88
2022/10/11 13:09:02;;;;;;;12.48;1.70;;;;;;;;;;5099339;28;20423;-83
2022/10/11 13:11:36;;;;;;;8.15;1.50;;;;;;;;;;5093295;28;20423;-81
2022/10/11 13:14:10;;;;;;;14.75;1.70;;;;;;;;;;5080579;28;20420;-86
2022/10/11 13:16:48;;;;;;;10.18;2.08;;;;;;;;;;5079444;28;20435;-83
2022/10/11 13:19:23;;;;;;;7.27;1.50;;;;;;;;;;5077023;28;20424;-84
2022/10/11 13:21:57;;;;;;;10.68;1.80;;;;;;;;;;5079936;28;20421;-85
2022/10/11 13:24:25;;;;;;;10.68;1.80;;;;;;;;;;5078196;28;20454;-85
2022/10/11 13:26:58;;;;;;;10.35;1.70;;;;;;;;;;5078709;28;21334;-85
2022/10/11 13:29:32;;;;;;;12.00;1.67;;;;;;;;;;5079058;28;20424;-86
2022/10/11 13:32:07;;;;;;;15.02;2.80;;;;;;;;;;5075846;28;20936;-83
2022/10/11 13:34:38;;;;;;;12.57;1.80;;;;;;;;;;5081516;28;20999;-85
2022/10/11 13:37:15;;;;;;;7.78;1.60;;;;;;;;;;5075825;28;20432;-85
2022/10/11 13:39:48;;;;;;;10.15;1.50;;;;;;;;;;5072405;28;20959;-85
2022/10/11 13:42:23;;;;;;;12.15;1.88;;;;;;;;;;5075741;28;21133;-86
2022/10/11 13:44:56;;;;;;;7.32;1.30;;;;;;;;;;5074626;28;20432;-85
2022/10/11 13:47:27;;;;;;;8.13;1.58;;;;;;;;;;5079123;28;20408;-87
2022/10/11 13:50:02;;;;;;;10.25;1.52;;;;;;;;;;5079770;28;20404;-84
2022/10/11 13:52:31;;;;;;;6.97;0.98;;;;;;;;;;5096072;28;20401;-84
2022/10/11 13:55:10;;;;;;;9.57;1.50;;;;;;;;;;5093830;28;20415;-84
2022/10/11 13:57:39;;;;;;;7.88;1.40;;;;;;;;;;5074783;28;20424;-84
2022/10/11 14:00:22;;;;;;;10.15;1.60;;;;;;;;;;5078125;28;20434;-85
2022/10/11 14:02:56;;;;;;;9.25;1.40;;;;;;;;;;5077795;28;20424;-86
2022/10/11 14:05:32;;;;;;;6.97;1.43;;;;;;;;;;5100908;28;20420;-86
2022/10/11 14:08:01;;;;;;;9.90;1.70;;;;;;;;;;5079725;28;20937;-85
2022/10/11 14:10:29;;;;;;;7.10;1.70;;;;;;;;;;5092804;28;20431;-87
2022/10/11 14:13:04;;;;;;;9.43;1.83;;;;;;;;;;5075717;28;21233;-85
2022/10/11 14:15:37;;;;;;;16.60;2.45;;;;;;;;;;5076944;28;20428;-85
2022/10/11 14:18:29;;;;;;;8.10;1.65;;;;;;;;;;5073706;28;20439;-86
2022/10/11 14:20:58;;;;;;;14.32;1.80;;;;;;;;;;5073046;28;20948;-84
2022/10/11 14:23:27;;;;;;;12.48;1.83;;;;;;;;;;5093356;28;20919;-87
2022/10/11 14:25:55;;;;;;;8.70;1.85;;;;;;;;;;5076039;28;20439;-88
2022/10/11 14:28:23;;;;;;;8.55;1.48;;;;;;;;;;5080453;28;20443;-87
2022/10/11 14:30:56;;;;;;;16.05;3.38;;;;;;;;;;5072366;28;21846;-86
2022/10/11 14:33:24;;;;;;;9.07;1.70;;;;;;;;;;5093871;28;20416;-90
2022/10/11 14:35:58;;;;;;;10.80;3.55;;;;;;;;;;5072487;28;20416;-88
2022/10/11 14:38:26;;;;;;;6.80;1.85;;;;;;;;;;5079625;28;20436;-86
2022/10/11 14:40:59;;;;;;;7.80;1.65;;;;;;;;;;5070801;28;20445;-89
2022/10/11 14:43:26;;;;;;;15.45;1.98;;;;;;;;;;5093939;28;20442;-88
2022/10/11 14:45:59;;;;;;;6.72;1.50;;;;;;;;;;5072528;28;20426;-87
2022/10/11 14:48:32;;;;;;;9.95;1.70;;;;;;;;;;5070960;28;20423;-88
2022/10/11 14:51:02;;;;;;;9.60;1.60;;;;;;;;;;5088999;28;21687;-87
2022/10/11 14:53:36;;;;;;;9.75;1.63;;;;;;;;;;5091162;28;20424;-85
2022/10/11 14:56:09;;;;;;;11.10;1.77;;;;;;;;;;5070627;28;20435;-86
2022/10/11 14:58:42;;;;;;;7.57;1.60;;;;;;;;;;5070902;28;20443;-89
2022/10/11 15:01:16;;;;;;;10.45;1.67;;;;;;;;;;5089844;28;21253;-88
2022/10/11 15:03:43;;;;;;;7.85;1.48;;;;;;;;;;5073044;28;20432;-89